createdAt,value
2023-03-29T00:00:40.978Z,96462.00
2023-03-29T00:01:40.036Z,96460.00
2023-03-29T00:02:41.265Z,96456.00
2023-03-29T00:03:41.253Z,96454.00
2023-03-29T00:04:41.287Z,96454.00
2023-03-29T00:05:41.274Z,96454.00
2023-03-29T00:06:41.332Z,96458.00
2023-03-29T00:07:40.412Z,96460.00
2023-03-29T00:08:41.474Z,96462.00
2023-03-29T00:09:41.502Z,96458.00
2023-03-29T00:10:40.563Z,96460.00
2023-03-29T00:11:41.613Z,96458.00
2023-03-29T00:12:40.693Z,96456.00
2023-03-29T00:13:41.739Z,96460.00
2023-03-29T00:14:41.811Z,96462.00
2023-03-29T00:15:40.880Z,96466.00
2023-03-29T00:16:40.953Z,96470.00
2023-03-29T00:17:42.004Z,96472.00
2023-03-29T00:18:42.086Z,96470.00
2023-03-29T00:19:42.134Z,96474.00
2023-03-29T00:20:42.176Z,96474.00
2023-03-29T00:21:42.273Z,96474.00
2023-03-29T00:22:42.383Z,96470.00
2023-03-29T00:23:42.438Z,96472.00
2023-03-29T00:24:42.443Z,96474.00
2023-03-29T00:25:42.477Z,96470.00
2023-03-29T00:26:42.578Z,96478.00
2023-03-29T00:27:42.623Z,96480.00
2023-03-29T00:28:41.671Z,96480.00
2023-03-29T00:29:42.718Z,96486.00
2023-03-29T00:30:42.783Z,96489.00
2023-03-29T00:31:42.863Z,96493.00
2023-03-29T00:32:41.993Z,96497.00
2023-03-29T00:33:42.977Z,96499.00
2023-03-29T00:34:43.037Z,96505.00
2023-03-29T00:35:43.129Z,96511.00
2023-03-29T00:36:43.146Z,96509.00
2023-03-29T00:37:43.229Z,96511.00
2023-03-29T00:38:43.280Z,96517.00
2023-03-29T00:39:42.345Z,96519.00
2023-03-29T00:40:43.434Z,96521.00
2023-03-29T00:41:43.437Z,96519.00
2023-03-29T00:42:43.494Z,96521.00
2023-03-29T00:43:42.555Z,96519.00
2023-03-29T00:44:42.615Z,96523.00
2023-03-29T00:45:43.671Z,96525.00
2023-03-29T00:46:43.812Z,96525.00
2023-03-29T00:47:43.823Z,96523.00
2023-03-29T00:48:43.838Z,96519.00
2023-03-29T00:49:43.901Z,96519.00
2023-03-29T00:50:43.953Z,96519.00
2023-03-29T00:51:44.029Z,96519.00
2023-03-29T00:52:43.087Z,96521.00
2023-03-29T00:53:44.127Z,96521.00
2023-03-29T00:54:43.183Z,96523.00
2023-03-29T00:55:44.214Z,96527.00
2023-03-29T00:56:44.335Z,96529.00
2023-03-29T00:57:44.343Z,96527.00
2023-03-29T00:58:44.385Z,96523.00
2023-03-29T00:59:44.413Z,96527.00
2023-03-29T01:00:44.468Z,96529.00
2023-03-29T01:01:44.558Z,96523.00
2023-03-29T01:02:44.634Z,96521.00
2023-03-29T01:03:43.826Z,96519.00
2023-03-29T01:04:44.704Z,96519.00
2023-03-29T01:05:44.748Z,96521.00
2023-03-29T01:06:44.845Z,96521.00
2023-03-29T01:07:44.860Z,96525.00
2023-03-29T01:08:44.917Z,96527.00
2023-03-29T01:09:44.942Z,96529.00
2023-03-29T01:10:44.998Z,96529.00
2023-03-29T01:11:45.044Z,96529.00
2023-03-29T01:12:45.178Z,96527.00
2023-03-29T01:13:45.169Z,96525.00
2023-03-29T01:14:44.208Z,96523.00
2023-03-29T01:15:45.269Z,96523.00
2023-03-29T01:16:45.361Z,96519.00
2023-03-29T01:17:45.416Z,96519.00
2023-03-29T01:18:45.433Z,96517.00
2023-03-29T01:19:45.434Z,96523.00
2023-03-29T01:20:45.514Z,96519.00
2023-03-29T01:21:45.503Z,96521.00
2023-03-29T01:22:45.537Z,96521.00
2023-03-29T01:23:45.586Z,96523.00
2023-03-29T01:24:45.712Z,96525.00
2023-03-29T01:25:45.629Z,96525.00
2023-03-29T01:26:44.677Z,96531.00
2023-03-29T01:27:45.707Z,96533.00
2023-03-29T01:28:45.779Z,96533.00
2023-03-29T01:29:45.790Z,96531.00
2023-03-29T01:30:45.850Z,96533.00
2023-03-29T01:31:46.019Z,96533.00
2023-03-29T01:32:45.949Z,96535.00
2023-03-29T01:33:44.954Z,96533.00
2023-03-29T01:34:45.957Z,96531.00
2023-03-29T01:35:45.046Z,96527.00
2023-03-29T01:36:45.012Z,96527.00
2023-03-29T01:37:46.059Z,96525.00
2023-03-29T01:38:45.098Z,96527.00
2023-03-29T01:39:46.109Z,96525.00
2023-03-29T01:40:46.137Z,96527.00
2023-03-29T01:41:46.160Z,96527.00
2023-03-29T01:42:46.180Z,96523.00
2023-03-29T01:43:46.389Z,96515.00
2023-03-29T01:44:46.264Z,96513.00
2023-03-29T01:45:46.304Z,96513.00
2023-03-29T01:46:46.329Z,96513.00
2023-03-29T01:47:46.425Z,96519.00
2023-03-29T01:48:46.390Z,96523.00
2023-03-29T01:49:46.403Z,96523.00
2023-03-29T01:50:46.422Z,96517.00
2023-03-29T01:51:46.450Z,96513.00
2023-03-29T01:52:46.476Z,96515.00
2023-03-29T01:53:46.528Z,96523.00
2023-03-29T01:54:46.535Z,96525.00
2023-03-29T01:55:45.549Z,96523.00
2023-03-29T01:56:46.607Z,96519.00
2023-03-29T01:57:45.620Z,96517.00
2023-03-29T01:58:45.647Z,96519.00
2023-03-29T01:59:45.680Z,96521.00
2023-03-29T02:00:45.735Z,96525.00
2023-03-29T02:01:46.804Z,96523.00
2023-03-29T02:02:45.915Z,96519.00
2023-03-29T02:03:46.924Z,96515.00
2023-03-29T02:04:46.951Z,96511.00
2023-03-29T02:05:47.020Z,96513.00
2023-03-29T02:06:47.071Z,96515.00
2023-03-29T02:07:46.132Z,96517.00
2023-03-29T02:08:47.185Z,96513.00
2023-03-29T02:09:46.254Z,96505.00
2023-03-29T02:10:47.302Z,96505.00
2023-03-29T02:11:47.374Z,96503.00
2023-03-29T02:12:47.431Z,96507.00
2023-03-29T02:13:47.460Z,96513.00
2023-03-29T02:14:47.528Z,96517.00
2023-03-29T02:15:47.634Z,96521.00
2023-03-29T02:16:46.624Z,96513.00
2023-03-29T02:17:46.768Z,96505.00
2023-03-29T02:18:47.734Z,96499.00
2023-03-29T02:19:47.771Z,96499.00
2023-03-29T02:20:47.798Z,96505.00
2023-03-29T02:21:46.857Z,96499.00
2023-03-29T02:22:47.899Z,96495.00
2023-03-29T02:23:47.908Z,96488.00
2023-03-29T02:24:46.975Z,96491.00
2023-03-29T02:25:46.996Z,96488.00
2023-03-29T02:26:48.045Z,96480.00
2023-03-29T02:27:48.079Z,96470.00
2023-03-29T02:28:48.098Z,96468.00
2023-03-29T02:29:48.135Z,96470.00
2023-03-29T02:30:47.333Z,96476.00
2023-03-29T02:31:48.235Z,96478.00
2023-03-29T02:32:48.257Z,96478.00
2023-03-29T02:33:47.253Z,96480.00
2023-03-29T02:34:48.291Z,96476.00
2023-03-29T02:35:47.325Z,96474.00
2023-03-29T02:36:48.326Z,96470.00
2023-03-29T02:37:47.366Z,96472.00
2023-03-29T02:38:47.387Z,96468.00
2023-03-29T02:39:48.420Z,96464.00
2023-03-29T02:40:48.418Z,96456.00
2023-03-29T02:41:48.431Z,96454.00
2023-03-29T02:42:48.448Z,96454.00
2023-03-29T02:43:48.489Z,96454.00
2023-03-29T02:44:47.497Z,96452.00
2023-03-29T02:45:48.523Z,96446.00
2023-03-29T02:46:48.575Z,96450.00
2023-03-29T02:47:48.630Z,96450.00
2023-03-29T02:48:48.585Z,96448.00
2023-03-29T02:49:48.606Z,96446.00
2023-03-29T02:50:48.617Z,96448.00
2023-03-29T02:51:47.636Z,96448.00
2023-03-29T02:52:48.646Z,96450.00
2023-03-29T02:53:48.671Z,96454.00
2023-03-29T02:54:48.690Z,96456.00
2023-03-29T02:55:48.707Z,96458.00
2023-03-29T02:56:48.750Z,96458.00
2023-03-29T02:57:48.723Z,96458.00
2023-03-29T02:58:48.751Z,96458.00
2023-03-29T02:59:48.890Z,96456.00
2023-03-29T03:00:48.861Z,96450.00
2023-03-29T03:01:48.845Z,96448.00
2023-03-29T03:02:48.920Z,96452.00
2023-03-29T03:03:48.969Z,96448.00
2023-03-29T03:04:48.855Z,96444.00
2023-03-29T03:05:47.874Z,96430.00
2023-03-29T03:06:47.875Z,96423.00
2023-03-29T03:07:48.871Z,96417.00
2023-03-29T03:08:48.903Z,96415.00
2023-03-29T03:09:48.940Z,96415.00
2023-03-29T03:10:47.904Z,96417.00
2023-03-29T03:11:48.930Z,96425.00
2023-03-29T03:12:48.946Z,96425.00
2023-03-29T03:13:47.942Z,96425.00
2023-03-29T03:14:48.977Z,96423.00
2023-03-29T03:15:49.109Z,96425.00
2023-03-29T03:16:48.015Z,96427.00
2023-03-29T03:17:49.044Z,96427.00
2023-03-29T03:18:48.023Z,96427.00
2023-03-29T03:19:49.085Z,96425.00
2023-03-29T03:20:49.046Z,96419.00
2023-03-29T03:21:49.033Z,96419.00
2023-03-29T03:22:49.137Z,96425.00
2023-03-29T03:23:49.049Z,96428.00
2023-03-29T03:24:48.061Z,96425.00
2023-03-29T03:25:49.101Z,96417.00
2023-03-29T03:26:49.090Z,96415.00
2023-03-29T03:27:49.131Z,96419.00
2023-03-29T03:28:48.113Z,96425.00
2023-03-29T03:29:48.123Z,96430.00
2023-03-29T03:30:49.156Z,96432.00
2023-03-29T03:31:48.187Z,96434.00
2023-03-29T03:32:49.193Z,96428.00
2023-03-29T03:33:49.186Z,96427.00
2023-03-29T03:34:49.201Z,96425.00
2023-03-29T03:35:49.263Z,96427.00
2023-03-29T03:36:49.214Z,96428.00
2023-03-29T03:37:49.235Z,96428.00
2023-03-29T03:38:49.240Z,96428.00
2023-03-29T03:39:49.261Z,96434.00
2023-03-29T03:40:49.271Z,96432.00
2023-03-29T03:41:48.300Z,96432.00
2023-03-29T03:42:49.315Z,96432.00
2023-03-29T03:43:49.311Z,96430.00
2023-03-29T03:44:49.342Z,96428.00
2023-03-29T03:45:49.397Z,96425.00
2023-03-29T03:46:49.350Z,96427.00
2023-03-29T03:47:49.442Z,96428.00
2023-03-29T03:48:49.369Z,96434.00
2023-03-29T03:49:49.399Z,96432.00
2023-03-29T03:50:49.395Z,96432.00
2023-03-29T03:51:52.262Z,96430.00
2023-03-29T03:52:49.400Z,96425.00
2023-03-29T03:53:49.401Z,96427.00
2023-03-29T03:54:48.388Z,96425.00
2023-03-29T03:55:49.372Z,96427.00
2023-03-29T03:56:49.377Z,96427.00
2023-03-29T03:57:49.360Z,96419.00
2023-03-29T03:58:49.348Z,96415.00
2023-03-29T03:59:49.345Z,96411.00
2023-03-29T04:00:49.365Z,96409.00
2023-03-29T04:01:49.326Z,96405.00
2023-03-29T04:02:49.421Z,96407.00
2023-03-29T04:03:49.330Z,96405.00
2023-03-29T04:04:49.310Z,96401.00
2023-03-29T04:05:49.310Z,96399.00
2023-03-29T04:06:49.291Z,96401.00
2023-03-29T04:07:49.320Z,96401.00
2023-03-29T04:08:48.294Z,96405.00
2023-03-29T04:09:49.269Z,96405.00
2023-03-29T04:10:48.278Z,96409.00
2023-03-29T04:11:48.267Z,96409.00
2023-03-29T04:12:49.267Z,96407.00
2023-03-29T04:13:48.239Z,96409.00
2023-03-29T04:14:49.252Z,96411.00
2023-03-29T04:15:48.279Z,96407.00
2023-03-29T04:16:49.262Z,96407.00
2023-03-29T04:17:49.269Z,96407.00
2023-03-29T04:18:49.272Z,96415.00
2023-03-29T04:19:49.218Z,96411.00
2023-03-29T04:20:49.200Z,96413.00
2023-03-29T04:21:49.193Z,96415.00
2023-03-29T04:22:49.197Z,96417.00
2023-03-29T04:23:49.215Z,96423.00
2023-03-29T04:24:49.176Z,96425.00
2023-03-29T04:25:49.171Z,96423.00
2023-03-29T04:26:48.159Z,96419.00
2023-03-29T04:27:49.140Z,96421.00
2023-03-29T04:28:49.155Z,96421.00
2023-03-29T04:29:48.139Z,96417.00
2023-03-29T04:30:49.211Z,96417.00
2023-03-29T04:31:48.133Z,96415.00
2023-03-29T04:32:49.148Z,96417.00
2023-03-29T04:33:48.110Z,96419.00
2023-03-29T04:34:48.088Z,96417.00
2023-03-29T04:35:49.136Z,96417.00
2023-03-29T04:36:49.073Z,96413.00
2023-03-29T04:37:49.085Z,96413.00
2023-03-29T04:38:49.080Z,96407.00
2023-03-29T04:39:49.095Z,96401.00
2023-03-29T04:40:49.080Z,96399.00
2023-03-29T04:41:49.054Z,96399.00
2023-03-29T04:42:49.036Z,96399.00
2023-03-29T04:43:49.027Z,96393.00
2023-03-29T04:44:49.051Z,96387.00
2023-03-29T04:45:49.041Z,96385.00
2023-03-29T04:46:49.052Z,96389.00
2023-03-29T04:47:49.081Z,96391.00
2023-03-29T04:48:49.071Z,96389.00
2023-03-29T04:49:49.074Z,96385.00
2023-03-29T04:50:48.106Z,96383.00
2023-03-29T04:51:49.142Z,96380.00
2023-03-29T04:52:49.211Z,96381.00
2023-03-29T04:53:49.169Z,96380.00
2023-03-29T04:54:49.221Z,96378.00
2023-03-29T04:55:48.254Z,96378.00
2023-03-29T04:56:49.294Z,96378.00
2023-03-29T04:57:49.271Z,96381.00
2023-03-29T04:58:49.291Z,96376.00
2023-03-29T04:59:49.292Z,96378.00
2023-03-29T05:00:49.313Z,96376.00
2023-03-29T05:01:49.381Z,96378.00
2023-03-29T05:02:49.388Z,96376.00
2023-03-29T05:03:49.430Z,96370.00
2023-03-29T05:05:48.481Z,96372.00
2023-03-29T05:06:49.498Z,96368.00
2023-03-29T05:07:29.771Z,96423.00
2023-03-29T05:08:30.789Z,96423.00
2023-03-29T05:09:31.634Z,96433.00
2023-03-29T05:10:30.712Z,96431.00
2023-03-29T05:11:30.779Z,96433.00
2023-03-29T05:12:30.807Z,96435.00
2023-03-29T05:13:30.744Z,96433.00
2023-03-29T05:13:48.639Z,96376.00
2023-03-29T05:14:30.696Z,96433.00
2023-03-29T05:14:48.627Z,96372.00
2023-03-29T05:15:49.811Z,96374.00
2023-03-29T05:16:49.677Z,96376.00
2023-03-29T05:19:29.645Z,96437.00
2023-03-29T05:20:30.784Z,96437.00
2023-03-29T05:21:29.671Z,96433.00
2023-03-29T05:22:30.683Z,96433.00
2023-03-29T05:23:30.627Z,96431.00
2023-03-29T05:23:48.801Z,96378.00
2023-03-29T05:24:49.828Z,96376.00
2023-03-29T05:25:49.840Z,96378.00
2023-03-29T05:26:49.958Z,96381.00
2023-03-29T05:27:29.635Z,96443.00
2023-03-29T05:27:50.142Z,96387.00
2023-03-29T05:28:50.395Z,96387.00
2023-03-29T05:29:49.934Z,96383.00
2023-03-29T05:30:49.946Z,96383.00
2023-03-29T05:31:50.080Z,96391.00
2023-03-29T05:32:29.729Z,96449.00
2023-03-29T05:32:50.073Z,96391.00
2023-03-29T05:33:30.539Z,96449.00
2023-03-29T05:36:29.621Z,96437.00
2023-03-29T05:36:49.077Z,96374.00
2023-03-29T05:37:30.563Z,96423.00
2023-03-29T05:37:50.118Z,96374.00
2023-03-29T05:40:29.523Z,96423.00
2023-03-29T05:40:49.136Z,96376.00
2023-03-29T05:41:30.550Z,96423.00
2023-03-29T05:42:30.567Z,96423.00
2023-03-29T05:43:30.495Z,96423.00
2023-03-29T05:43:50.014Z,96374.00
2023-03-29T05:44:51.558Z,96374.00
2023-03-29T05:45:29.846Z,96433.00
2023-03-29T05:45:50.167Z,96380.00
2023-03-29T05:46:30.540Z,96435.00
2023-03-29T05:46:50.500Z,96374.00
2023-03-29T05:47:30.607Z,96437.00
2023-03-29T05:48:49.147Z,96378.00
2023-03-29T05:49:50.216Z,96380.00
2023-03-29T05:50:29.560Z,96437.00
2023-03-29T05:50:50.124Z,96381.00
2023-03-29T05:51:50.489Z,96378.00
2023-03-29T05:52:48.884Z,96437.00
2023-03-29T05:53:49.102Z,96378.00
2023-03-29T05:53:50.496Z,96433.00
2023-03-29T05:54:50.076Z,96380.00
2023-03-29T05:58:48.652Z,96437.00
2023-03-29T05:59:48.580Z,96431.00
2023-03-29T05:59:49.068Z,96380.00
2023-03-29T06:00:50.084Z,96376.00
2023-03-29T06:01:50.506Z,96376.00
2023-03-29T06:04:46.668Z,96447.00
2023-03-29T06:04:49.052Z,96389.00
2023-03-29T06:05:49.581Z,96447.00
2023-03-29T06:06:48.995Z,96397.00
2023-03-29T06:07:50.002Z,96391.00
2023-03-29T06:11:46.513Z,96447.00
2023-03-29T06:12:48.965Z,96385.00
2023-03-29T06:13:49.067Z,96389.00
2023-03-29T06:14:49.959Z,96387.00
2023-03-29T06:16:46.074Z,96447.00
2023-03-29T06:17:48.943Z,96389.00
2023-03-29T06:18:49.933Z,96387.00
2023-03-29T06:20:48.972Z,96393.00
2023-03-29T06:22:49.051Z,96391.00
2023-03-29T06:23:50.035Z,96397.00
2023-03-29T06:24:49.068Z,96399.00
2023-03-29T06:25:50.109Z,96397.00
2023-03-29T06:26:50.151Z,96393.00
2023-03-29T06:27:50.171Z,96399.00
2023-03-29T06:28:52.195Z,96399.00
2023-03-29T06:29:50.177Z,96401.00
2023-03-29T06:31:49.218Z,96401.00
2023-03-29T06:34:49.142Z,96399.00
2023-03-29T06:36:49.110Z,96401.00
2023-03-29T06:37:09.094Z,96457.00
2023-03-29T06:37:50.116Z,96403.00
2023-03-29T06:38:50.103Z,96403.00
2023-03-29T06:42:49.088Z,96411.00
2023-03-29T06:43:49.063Z,96411.00
2023-03-29T06:44:50.099Z,96411.00
2023-03-29T06:45:49.076Z,96413.00
2023-03-29T06:46:50.096Z,96407.00
2023-03-29T06:48:49.025Z,96405.00
2023-03-29T06:49:48.996Z,96409.00
2023-03-29T06:50:50.027Z,96409.00
2023-03-29T06:51:50.016Z,96409.00
2023-03-29T06:52:50.035Z,96411.00
2023-03-29T06:54:08.608Z,96464.00
2023-03-29T06:55:48.998Z,96409.00
2023-03-29T06:56:50.070Z,96409.00
2023-03-29T06:57:49.968Z,96411.00
2023-03-29T06:58:49.988Z,96417.00
2023-03-29T06:59:49.960Z,96421.00
2023-03-29T07:00:06.385Z,96474.00
2023-03-29T07:01:06.384Z,96476.00
2023-03-29T07:03:48.944Z,96425.00
2023-03-29T07:04:49.961Z,96425.00
2023-03-29T07:05:48.927Z,96428.00
2023-03-29T07:08:48.893Z,96427.00
2023-03-29T07:10:48.878Z,96432.00
2023-03-29T07:11:49.864Z,96432.00
2023-03-29T07:15:48.871Z,96428.00
2023-03-29T07:16:49.858Z,96425.00
2023-03-29T07:17:49.879Z,96423.00
2023-03-29T07:18:48.805Z,96417.00
2023-03-29T07:19:49.805Z,96411.00
2023-03-29T07:23:48.799Z,96417.00
2023-03-29T07:24:48.795Z,96417.00
2023-03-29T07:25:49.827Z,96417.00
2023-03-29T07:27:03.181Z,96417.00
2023-03-29T07:30:48.826Z,96419.00
2023-03-29T07:31:49.838Z,96419.00
2023-03-29T07:32:49.927Z,96419.00
2023-03-29T07:34:48.782Z,96417.00
2023-03-29T07:35:49.812Z,96417.00
2023-03-29T07:38:48.763Z,96427.00
2023-03-29T07:39:49.755Z,96427.00
2023-03-29T07:40:49.732Z,96428.00
2023-03-29T07:41:49.754Z,96427.00
2023-03-29T07:42:49.763Z,96427.00
2023-03-29T07:45:48.766Z,96434.00
2023-03-29T07:46:57.484Z,96448.00
2023-03-29T07:47:49.086Z,96446.00
2023-03-29T07:48:49.701Z,96444.00
2023-03-29T07:50:48.650Z,96444.00
2023-03-29T07:51:49.640Z,96446.00
2023-03-29T07:52:50.028Z,96446.00
2023-03-29T07:54:48.624Z,96444.00
2023-03-29T07:55:49.638Z,96434.00
2023-03-29T07:56:49.637Z,96432.00
2023-03-29T07:57:48.618Z,96430.00
2023-03-29T07:58:48.589Z,96432.00
2023-03-29T07:59:49.587Z,96434.00
2023-03-29T08:00:49.651Z,96432.00
2023-03-29T08:01:49.592Z,96428.00
2023-03-29T08:02:35.942Z,96480.00
2023-03-29T08:03:48.621Z,96421.00
2023-03-29T08:04:49.609Z,96425.00
2023-03-29T08:08:48.548Z,96423.00
2023-03-29T08:09:48.515Z,96427.00
2023-03-29T08:10:49.517Z,96427.00
2023-03-29T08:14:48.484Z,96421.00
2023-03-29T08:15:48.479Z,96423.00
2023-03-29T08:17:48.511Z,96428.00
2023-03-29T08:18:49.492Z,96430.00
2023-03-29T08:19:51.229Z,96430.00
2023-03-29T08:20:49.552Z,96428.00
2023-03-29T08:24:48.506Z,96421.00
2023-03-29T08:25:48.514Z,96425.00
2023-03-29T08:27:48.522Z,96421.00
2023-03-29T08:28:49.467Z,96421.00
2023-03-29T08:30:48.561Z,96427.00
2023-03-29T08:33:48.437Z,96428.00
2023-03-29T08:34:49.434Z,96432.00
2023-03-29T08:36:48.426Z,96434.00
2023-03-29T08:37:51.061Z,96430.00
2023-03-29T08:38:49.587Z,96430.00
2023-03-29T08:39:49.623Z,96430.00
2023-03-29T08:40:49.662Z,96434.00
2023-03-29T08:41:49.719Z,96432.00
2023-03-29T08:42:50.066Z,96432.00
2023-03-29T08:44:48.827Z,96434.00
2023-03-29T08:45:51.143Z,96432.00
2023-03-29T08:46:49.941Z,96432.00
2023-03-29T08:47:50.095Z,96434.00
2023-03-29T08:48:50.001Z,96434.00
2023-03-29T08:49:50.027Z,96432.00
2023-03-29T08:50:50.070Z,96434.00
2023-03-29T08:51:50.142Z,96430.00
2023-03-29T08:52:50.204Z,96428.00
2023-03-29T08:53:50.221Z,96432.00
2023-03-29T08:54:50.250Z,96430.00
2023-03-29T08:56:49.370Z,96434.00
2023-03-29T08:57:49.560Z,96450.00
2023-03-29T08:58:50.392Z,96454.00
2023-03-29T08:59:50.432Z,96456.00
2023-03-29T09:00:50.481Z,96454.00
2023-03-29T09:01:50.583Z,96452.00
2023-03-29T09:02:50.710Z,96448.00
2023-03-29T09:03:50.712Z,96446.00
2023-03-29T09:04:50.647Z,96442.00
2023-03-29T09:05:50.664Z,96442.00
2023-03-29T09:06:50.707Z,96434.00
2023-03-29T09:07:50.789Z,96432.00
2023-03-29T09:11:49.920Z,96442.00
2023-03-29T09:12:50.974Z,96444.00
2023-03-29T09:13:51.018Z,96444.00
2023-03-29T09:14:51.018Z,96446.00
2023-03-29T09:18:50.157Z,96452.00
2023-03-29T09:19:50.283Z,96452.00
2023-03-29T09:20:51.259Z,96452.00
2023-03-29T09:21:50.272Z,96454.00
2023-03-29T09:22:51.319Z,96454.00
2023-03-29T09:23:52.460Z,96456.00
2023-03-29T09:25:28.145Z,96504.00
2023-03-29T09:25:54.194Z,96452.00
2023-03-29T09:26:50.454Z,96452.00
2023-03-29T09:29:50.400Z,96448.00
2023-03-29T09:30:51.408Z,96448.00
2023-03-29T09:35:50.381Z,96454.00
2023-03-29T09:36:51.409Z,96452.00
2023-03-29T09:37:51.451Z,96456.00
2023-03-29T09:41:50.318Z,96458.00
2023-03-29T09:42:51.308Z,96458.00
2023-03-29T09:43:51.316Z,96450.00
2023-03-29T09:44:50.321Z,96454.00
2023-03-29T09:45:51.373Z,96454.00
2023-03-29T09:48:50.390Z,96448.00
2023-03-29T09:51:50.250Z,96444.00
2023-03-29T09:52:51.580Z,96442.00
2023-03-29T09:53:50.218Z,96430.00
2023-03-29T09:54:51.232Z,96425.00
2023-03-29T09:55:51.253Z,96423.00
2023-03-29T09:56:51.245Z,96425.00
2023-03-29T09:57:51.237Z,96427.00
2023-03-29T09:59:50.187Z,96430.00
2023-03-29T10:00:51.251Z,96432.00
2023-03-29T10:04:50.477Z,96427.00
2023-03-29T10:06:50.530Z,96428.00
2023-03-29T10:07:51.499Z,96430.00
2023-03-29T10:08:19.019Z,96484.00
2023-03-29T10:08:51.798Z,96428.00
2023-03-29T10:09:51.545Z,96430.00
2023-03-29T10:10:50.575Z,96432.00
2023-03-29T10:11:51.628Z,96430.00
2023-03-29T10:12:38.575Z,96488.00
2023-03-29T10:12:51.655Z,96432.00
2023-03-29T10:13:51.732Z,96432.00
2023-03-29T10:14:53.781Z,96428.00
2023-03-29T10:15:50.821Z,96430.00
2023-03-29T10:16:51.819Z,96434.00
2023-03-29T10:18:50.789Z,96428.00
2023-03-29T10:19:51.770Z,96430.00
2023-03-29T10:20:51.752Z,96423.00
2023-03-29T10:22:50.730Z,96425.00
2023-03-29T10:23:51.739Z,96425.00
2023-03-29T10:24:51.765Z,96428.00
2023-03-29T10:28:50.678Z,96419.00
2023-03-29T10:29:51.688Z,96419.00
2023-03-29T10:30:51.705Z,96417.00
2023-03-29T10:31:51.745Z,96415.00
2023-03-29T10:35:50.692Z,96413.00
2023-03-29T10:36:52.644Z,96413.00
2023-03-29T10:37:15.790Z,96468.00
2023-03-29T10:38:50.761Z,96417.00
2023-03-29T10:39:51.656Z,96413.00
2023-03-29T10:40:51.347Z,96409.00
2023-03-29T10:41:51.763Z,96405.00
2023-03-29T10:43:52.253Z,96403.00
2023-03-29T10:44:51.783Z,96403.00
2023-03-29T10:48:51.514Z,96401.00
2023-03-29T10:49:52.620Z,96401.00
2023-03-29T10:52:50.674Z,96399.00
2023-03-29T10:53:51.538Z,96399.00
2023-03-29T10:54:51.722Z,96399.00
2023-03-29T10:55:51.556Z,96399.00
2023-03-29T10:58:50.665Z,96399.00
2023-03-29T10:59:51.515Z,96401.00
2023-03-29T11:00:51.630Z,96401.00
2023-03-29T11:04:50.543Z,96401.00
2023-03-29T11:05:51.519Z,96403.00
2023-03-29T11:06:51.532Z,96391.00
2023-03-29T11:07:51.607Z,96395.00
2023-03-29T11:08:51.490Z,96385.00
2023-03-29T11:09:51.487Z,96387.00
2023-03-29T11:10:51.717Z,96387.00
2023-03-29T11:11:56.208Z,96383.00
2023-03-29T11:12:52.322Z,96380.00
2023-03-29T11:15:50.478Z,96372.00
2023-03-29T11:16:51.364Z,96372.00
2023-03-29T11:17:51.406Z,96370.00
2023-03-29T11:18:51.619Z,96368.00
2023-03-29T11:22:50.994Z,96364.00
2023-03-29T11:23:51.640Z,96366.00
2023-03-29T11:26:50.752Z,96374.00
2023-03-29T11:27:50.722Z,96378.00
2023-03-29T11:28:52.061Z,96380.00
2023-03-29T11:29:51.850Z,96378.00
2023-03-29T11:30:52.030Z,96376.00
2023-03-29T11:31:52.579Z,96376.00
2023-03-29T11:33:51.570Z,96372.00
2023-03-29T11:34:52.335Z,96372.00
2023-03-29T11:36:51.193Z,96372.00
2023-03-29T11:37:52.245Z,96372.00
2023-03-29T11:38:52.976Z,96368.00
2023-03-29T11:39:52.376Z,96366.00
2023-03-29T11:40:52.372Z,96364.00
2023-03-29T11:41:52.461Z,96366.00
2023-03-29T11:42:52.569Z,96362.00
2023-03-29T11:43:54.222Z,96362.00
2023-03-29T11:44:54.785Z,96362.00
2023-03-29T11:47:51.620Z,96362.00
2023-03-29T11:48:52.543Z,96362.00
2023-03-29T11:52:51.393Z,96352.00
2023-03-29T11:53:52.759Z,96354.00
2023-03-29T11:58:51.521Z,96348.00
2023-03-29T11:59:52.358Z,96344.00
2023-03-29T12:00:52.355Z,96338.00
2023-03-29T12:01:57.983Z,96386.00
2023-03-29T12:04:51.400Z,96338.00
2023-03-29T12:05:52.304Z,96338.00
2023-03-29T12:05:57.691Z,96388.00
2023-03-29T12:06:52.321Z,96334.00
2023-03-29T12:06:58.704Z,96390.00
2023-03-29T12:07:58.821Z,96390.00
2023-03-29T12:08:58.678Z,96390.00
2023-03-29T12:12:51.949Z,96325.00
2023-03-29T12:13:52.785Z,96323.00
2023-03-29T12:13:57.638Z,96378.00
2023-03-29T12:14:58.681Z,96374.00
2023-03-29T12:15:58.638Z,96376.00
2023-03-29T12:18:51.511Z,96321.00
2023-03-29T12:19:52.581Z,96321.00
2023-03-29T12:19:57.596Z,96378.00
2023-03-29T12:20:52.806Z,96317.00
2023-03-29T12:21:53.000Z,96311.00
2023-03-29T12:22:57.572Z,96372.00
2023-03-29T12:23:58.589Z,96368.00
2023-03-29T12:24:51.736Z,96313.00
2023-03-29T12:24:58.609Z,96370.00
2023-03-29T12:25:52.886Z,96315.00
2023-03-29T12:25:58.656Z,96370.00
2023-03-29T12:26:56.196Z,96309.00
2023-03-29T12:26:58.763Z,96366.00
2023-03-29T12:27:52.917Z,96307.00
2023-03-29T12:27:58.802Z,96368.00
2023-03-29T12:28:52.788Z,96307.00
2023-03-29T12:28:58.843Z,96360.00
2023-03-29T12:29:58.843Z,96360.00
2023-03-29T12:30:51.806Z,96301.00
2023-03-29T12:30:58.885Z,96358.00
2023-03-29T12:31:52.968Z,96301.00
2023-03-29T12:31:59.009Z,96360.00
2023-03-29T12:32:59.068Z,96358.00
2023-03-29T12:33:58.980Z,96356.00
2023-03-29T12:34:58.988Z,96356.00
2023-03-29T12:35:51.724Z,96301.00
2023-03-29T12:35:59.116Z,96354.00
2023-03-29T12:37:58.095Z,96352.00
2023-03-29T12:38:59.181Z,96354.00
2023-03-29T12:39:59.165Z,96350.00
2023-03-29T12:40:51.629Z,96299.00
2023-03-29T12:40:59.246Z,96349.00
2023-03-29T12:41:51.769Z,96293.00
2023-03-29T12:42:52.600Z,96295.00
2023-03-29T12:43:52.589Z,96299.00
2023-03-29T12:44:58.421Z,96345.00
2023-03-29T12:45:51.571Z,96295.00
2023-03-29T12:45:59.399Z,96339.00
2023-03-29T12:46:59.400Z,96339.00
2023-03-29T12:47:59.450Z,96337.00
2023-03-29T12:50:58.568Z,96333.00
2023-03-29T12:51:51.585Z,96278.00
2023-03-29T12:51:59.577Z,96329.00
2023-03-29T12:52:59.627Z,96327.00
2023-03-29T12:53:59.657Z,96327.00
2023-03-29T12:54:59.769Z,96327.00
2023-03-29T12:55:59.791Z,96329.00
2023-03-29T12:56:51.766Z,96278.00
2023-03-29T12:56:59.822Z,96327.00
2023-03-29T12:57:59.861Z,96319.00
2023-03-29T12:58:51.765Z,96268.00
2023-03-29T12:58:59.892Z,96317.00
2023-03-29T12:59:52.523Z,96266.00
2023-03-29T12:59:59.909Z,96313.00
2023-03-29T13:00:52.724Z,96266.00
2023-03-29T13:00:59.999Z,96307.00
2023-03-29T13:01:52.720Z,96260.00
2023-03-29T13:02:00.161Z,96307.00
2023-03-29T13:02:52.795Z,96264.00
2023-03-29T13:03:00.136Z,96305.00
2023-03-29T13:03:52.784Z,96264.00
2023-03-29T13:04:00.016Z,96309.00
2023-03-29T13:04:52.863Z,96262.00
2023-03-29T13:05:00.174Z,96307.00
2023-03-29T13:05:52.847Z,96260.00
2023-03-29T13:06:54.158Z,96258.00
2023-03-29T13:07:52.922Z,96258.00
2023-03-29T13:07:59.178Z,96301.00
2023-03-29T13:08:52.924Z,96254.00
2023-03-29T13:09:00.234Z,96299.00
2023-03-29T13:09:52.937Z,96252.00
2023-03-29T13:10:00.268Z,96298.00
2023-03-29T13:10:52.954Z,96250.00
2023-03-29T13:11:00.266Z,96294.00
2023-03-29T13:12:00.254Z,96296.00
2023-03-29T13:14:59.268Z,96301.00
2023-03-29T13:16:00.484Z,96309.00
2023-03-29T13:16:52.098Z,96254.00